sensor_id;sensor_type;location;lat;lon;timestamp;temperature;humidity
41557;DHT22;27720;51.992;5.890;2022-10-16T00:02:20;14.10;99.90
41557;DHT22;27720;51.992;5.890;2022-10-16T00:04:48;14.10;99.90
41557;DHT22;27720;51.992;5.890;2022-10-16T00:07:17;14.10;99.90
41557;DHT22;27720;51.992;5.890;2022-10-16T00:09:56;14.00;99.90
41557;DHT22;27720;51.992;5.890;2022-10-16T00:12:33;14.00;99.90
41557;DHT22;27720;51.992;5.890;2022-10-16T00:14:59;14.00;99.90
41557;DHT22;27720;51.992;5.890;2022-10-16T00:17:25;14.00;99.90
41557;DHT22;27720;51.992;5.890;2022-10-16T00:19:59;13.90;99.90
41557;DHT22;27720;51.992;5.890;2022-10-16T00:22:29;14.00;99.90
41557;DHT22;27720;51.992;5.890;2022-10-16T00:28:07;13.90;99.90
41557;DHT22;27720;51.992;5.890;2022-10-16T00:30:37;13.80;99.90
41557;DHT22;27720;51.992;5.890;2022-10-16T00:33:03;13.80;99.90
41557;DHT22;27720;51.992;5.890;2022-10-16T00:35:38;13.70;99.90
41557;DHT22;27720;51.992;5.890;2022-10-16T00:38:04;13.80;99.90
41557;DHT22;27720;51.992;5.890;2022-10-16T00:40:30;13.80;99.90
41557;DHT22;27720;51.992;5.890;2022-10-16T00:42:57;13.90;99.90
41557;DHT22;27720;51.992;5.890;2022-10-16T00:45:23;13.80;99.90
41557;DHT22;27720;51.992;5.890;2022-10-16T00:48:00;13.80;99.90
41557;DHT22;27720;51.992;5.890;2022-10-16T00:50:35;13.90;99.90
41557;DHT22;27720;51.992;5.890;2022-10-16T00:53:03;13.80;99.90
41557;DHT22;27720;51.992;5.890;2022-10-16T00:55:29;13.80;99.90
41557;DHT22;27720;51.992;5.890;2022-10-16T00:57:58;13.80;99.90
41557;DHT22;27720;51.992;5.890;2022-10-16T01:00:30;13.80;99.90
41557;DHT22;27720;51.992;5.890;2022-10-16T01:03:00;13.70;99.90
41557;DHT22;27720;51.992;5.890;2022-10-16T01:05:37;13.70;99.90
41557;DHT22;27720;51.992;5.890;2022-10-16T01:11:01;13.70;99.90
41557;DHT22;27720;51.992;5.890;2022-10-16T01:13:41;13.70;99.90
41557;DHT22;27720;51.992;5.890;2022-10-16T01:16:17;13.70;99.90
41557;DHT22;27720;51.992;5.890;2022-10-16T01:19:09;13.70;99.90
41557;DHT22;27720;51.992;5.890;2022-10-16T01:21:42;13.70;99.90
41557;DHT22;27720;51.992;5.890;2022-10-16T01:24:17;13.70;99.90
41557;DHT22;27720;51.992;5.890;2022-10-16T01:27:15;13.80;99.90
41557;DHT22;27720;51.992;5.890;2022-10-16T01:30:27;13.80;99.90
41557;DHT22;27720;51.992;5.890;2022-10-16T01:32:36;13.70;99.90
41557;DHT22;27720;51.992;5.890;2022-10-16T01:35:11;13.70;99.90
41557;DHT22;27720;51.992;5.890;2022-10-16T01:37:48;13.70;99.90
41557;DHT22;27720;51.992;5.890;2022-10-16T01:40:33;13.70;99.90
41557;DHT22;27720;51.992;5.890;2022-10-16T01:44:18;13.70;99.90
41557;DHT22;27720;51.992;5.890;2022-10-16T01:46:48;13.70;99.90
41557;DHT22;27720;51.992;5.890;2022-10-16T01:49:40;13.70;99.90
41557;DHT22;27720;51.992;5.890;2022-10-16T01:52:15;13.70;99.90
41557;DHT22;27720;51.992;5.890;2022-10-16T01:54:45;13.70;99.90
41557;DHT22;27720;51.992;5.890;2022-10-16T01:57:27;13.80;99.90
41557;DHT22;27720;51.992;5.890;2022-10-16T02:00:17;13.80;99.90
41557;DHT22;27720;51.992;5.890;2022-10-16T02:06:16;13.90;99.90
41557;DHT22;27720;51.992;5.890;2022-10-16T02:09:13;13.90;99.90
41557;DHT22;27720;51.992;5.890;2022-10-16T02:12:14;13.90;99.90
41557;DHT22;27720;51.992;5.890;2022-10-16T02:14:41;13.90;99.90
41557;DHT22;27720;51.992;5.890;2022-10-16T02:17:13;13.90;99.90
41557;DHT22;27720;51.992;5.890;2022-10-16T02:19:40;13.90;99.90
41557;DHT22;27720;51.992;5.890;2022-10-16T02:22:09;13.90;99.90
41557;DHT22;27720;51.992;5.890;2022-10-16T02:24:54;14.00;99.90
41557;DHT22;27720;51.992;5.890;2022-10-16T02:27:36;14.00;99.90
41557;DHT22;27720;51.992;5.890;2022-10-16T02:32:53;14.00;99.90
41557;DHT22;27720;51.992;5.890;2022-10-16T02:35:21;14.00;99.90
41557;DHT22;27720;51.992;5.890;2022-10-16T02:37:48;14.00;99.90
41557;DHT22;27720;51.992;5.890;2022-10-16T02:40:16;14.00;99.90
41557;DHT22;27720;51.992;5.890;2022-10-16T02:42:53;14.00;99.90
41557;DHT22;27720;51.992;5.890;2022-10-16T02:45:19;14.00;99.90
41557;DHT22;27720;51.992;5.890;2022-10-16T02:47:45;14.00;99.90
41557;DHT22;27720;51.992;5.890;2022-10-16T02:50:11;14.00;99.90
41557;DHT22;27720;51.992;5.890;2022-10-16T02:52:37;14.00;99.90
41557;DHT22;27720;51.992;5.890;2022-10-16T02:55:02;14.00;99.90
41557;DHT22;27720;51.992;5.890;2022-10-16T02:57:28;14.00;99.90
41557;DHT22;27720;51.992;5.890;2022-10-16T02:59:54;14.00;99.90
41557;DHT22;27720;51.992;5.890;2022-10-16T03:02:20;14.00;99.90
41557;DHT22;27720;51.992;5.890;2022-10-16T03:04:46;13.90;99.90
41557;DHT22;27720;51.992;5.890;2022-10-16T03:07:11;14.00;99.90
41557;DHT22;27720;51.992;5.890;2022-10-16T03:09:37;13.90;99.90
41557;DHT22;27720;51.992;5.890;2022-10-16T03:12:03;13.90;99.90
41557;DHT22;27720;51.992;5.890;2022-10-16T03:14:29;14.00;99.90
41557;DHT22;27720;51.992;5.890;2022-10-16T03:16:55;14.00;99.90
41557;DHT22;27720;51.992;5.890;2022-10-16T03:19:24;14.00;99.90
41557;DHT22;27720;51.992;5.890;2022-10-16T03:21:49;14.00;99.90
41557;DHT22;27720;51.992;5.890;2022-10-16T03:24:18;14.00;99.90
41557;DHT22;27720;51.992;5.890;2022-10-16T03:26:44;14.00;99.90
41557;DHT22;27720;51.992;5.890;2022-10-16T03:29:10;14.00;99.90
41557;DHT22;27720;51.992;5.890;2022-10-16T03:31:35;14.00;99.90
41557;DHT22;27720;51.992;5.890;2022-10-16T03:34:01;14.00;99.90
41557;DHT22;27720;51.992;5.890;2022-10-16T03:36:27;14.00;99.90
41557;DHT22;27720;51.992;5.890;2022-10-16T03:38:53;14.00;99.90
41557;DHT22;27720;51.992;5.890;2022-10-16T03:41:18;14.00;99.90
41557;DHT22;27720;51.992;5.890;2022-10-16T03:43:44;14.00;99.90
41557;DHT22;27720;51.992;5.890;2022-10-16T03:46:10;14.00;99.90
41557;DHT22;27720;51.992;5.890;2022-10-16T03:48:35;14.00;99.90
41557;DHT22;27720;51.992;5.890;2022-10-16T03:51:01;14.00;99.90
41557;DHT22;27720;51.992;5.890;2022-10-16T03:53:27;14.00;99.90
41557;DHT22;27720;51.992;5.890;2022-10-16T03:55:53;14.00;99.90
41557;DHT22;27720;51.992;5.890;2022-10-16T03:58:19;14.00;99.90
41557;DHT22;27720;51.992;5.890;2022-10-16T04:00:45;14.00;99.90
41557;DHT22;27720;51.992;5.890;2022-10-16T04:03:13;14.00;99.90
41557;DHT22;27720;51.992;5.890;2022-10-16T04:05:39;14.00;99.90
41557;DHT22;27720;51.992;5.890;2022-10-16T04:08:06;14.00;99.90
41557;DHT22;27720;51.992;5.890;2022-10-16T04:10:38;14.00;99.90
41557;DHT22;27720;51.992;5.890;2022-10-16T04:13:04;14.00;99.90
41557;DHT22;27720;51.992;5.890;2022-10-16T04:15:30;14.00;99.90
41557;DHT22;27720;51.992;5.890;2022-10-16T04:17:56;14.00;99.90
41557;DHT22;27720;51.992;5.890;2022-10-16T04:20:21;14.00;99.90
41557;DHT22;27720;51.992;5.890;2022-10-16T04:22:47;14.00;99.90
41557;DHT22;27720;51.992;5.890;2022-10-16T04:25:13;14.00;99.90
41557;DHT22;27720;51.992;5.890;2022-10-16T04:27:39;14.00;99.90
41557;DHT22;27720;51.992;5.890;2022-10-16T04:30:05;14.00;99.90
41557;DHT22;27720;51.992;5.890;2022-10-16T04:32:31;14.00;99.90
41557;DHT22;27720;51.992;5.890;2022-10-16T04:34:57;14.00;99.90
41557;DHT22;27720;51.992;5.890;2022-10-16T04:37:27;14.00;99.90
41557;DHT22;27720;51.992;5.890;2022-10-16T04:39:53;14.00;99.90
41557;DHT22;27720;51.992;5.890;2022-10-16T04:42:20;14.00;99.90
41557;DHT22;27720;51.992;5.890;2022-10-16T04:44:45;14.10;99.90
41557;DHT22;27720;51.992;5.890;2022-10-16T04:47:12;14.10;99.90
41557;DHT22;27720;51.992;5.890;2022-10-16T04:49:38;14.10;99.90
41557;DHT22;27720;51.992;5.890;2022-10-16T04:52:04;14.10;99.90
41557;DHT22;27720;51.992;5.890;2022-10-16T04:54:30;14.10;99.90
41557;DHT22;27720;51.992;5.890;2022-10-16T04:56:56;14.10;99.90
41557;DHT22;27720;51.992;5.890;2022-10-16T04:59:22;14.10;99.90
41557;DHT22;27720;51.992;5.890;2022-10-16T05:01:48;14.10;99.90
41557;DHT22;27720;51.992;5.890;2022-10-16T05:04:14;14.00;99.90
41557;DHT22;27720;51.992;5.890;2022-10-16T05:06:43;14.10;99.90
41557;DHT22;27720;51.992;5.890;2022-10-16T05:09:10;14.10;99.90
41557;DHT22;27720;51.992;5.890;2022-10-16T05:11:35;14.10;99.90
41557;DHT22;27720;51.992;5.890;2022-10-16T05:14:01;14.10;99.90
41557;DHT22;27720;51.992;5.890;2022-10-16T05:16:28;14.10;99.90
41557;DHT22;27720;51.992;5.890;2022-10-16T05:18:55;14.00;99.90
41557;DHT22;27720;51.992;5.890;2022-10-16T05:21:22;14.00;99.90
41557;DHT22;27720;51.992;5.890;2022-10-16T05:23:50;14.00;99.90
41557;DHT22;27720;51.992;5.890;2022-10-16T05:26:18;14.00;99.90
41557;DHT22;27720;51.992;5.890;2022-10-16T05:28:44;13.90;99.90
41557;DHT22;27720;51.992;5.890;2022-10-16T05:31:09;13.90;99.90
41557;DHT22;27720;51.992;5.890;2022-10-16T05:33:36;13.90;99.90
41557;DHT22;27720;51.992;5.890;2022-10-16T05:36:07;13.90;99.90
41557;DHT22;27720;51.992;5.890;2022-10-16T05:38:34;13.90;99.90
41557;DHT22;27720;51.992;5.890;2022-10-16T05:41:00;13.90;99.90
41557;DHT22;27720;51.992;5.890;2022-10-16T05:43:27;13.90;99.90
41557;DHT22;27720;51.992;5.890;2022-10-16T05:45:58;13.80;99.90
41557;DHT22;27720;51.992;5.890;2022-10-16T05:48:24;13.80;99.90
41557;DHT22;27720;51.992;5.890;2022-10-16T05:51:01;13.80;99.90
41557;DHT22;27720;51.992;5.890;2022-10-16T05:53:29;13.80;99.90
41557;DHT22;27720;51.992;5.890;2022-10-16T05:55:55;13.80;99.90
41557;DHT22;27720;51.992;5.890;2022-10-16T05:58:22;13.80;99.90
41557;DHT22;27720;51.992;5.890;2022-10-16T06:00:55;13.70;99.90
41557;DHT22;27720;51.992;5.890;2022-10-16T06:03:21;13.80;99.90
41557;DHT22;27720;51.992;5.890;2022-10-16T06:05:47;13.70;99.90
41557;DHT22;27720;51.992;5.890;2022-10-16T06:08:12;13.70;99.90
41557;DHT22;27720;51.992;5.890;2022-10-16T06:10:41;13.70;99.90
41557;DHT22;27720;51.992;5.890;2022-10-16T06:13:07;13.70;99.90
41557;DHT22;27720;51.992;5.890;2022-10-16T06:15:32;13.70;99.90
41557;DHT22;27720;51.992;5.890;2022-10-16T06:18:01;13.60;99.90
41557;DHT22;27720;51.992;5.890;2022-10-16T06:20:27;13.70;99.90
41557;DHT22;27720;51.992;5.890;2022-10-16T06:22:52;13.70;99.90
41557;DHT22;27720;51.992;5.890;2022-10-16T06:25:18;13.70;99.90
41557;DHT22;27720;51.992;5.890;2022-10-16T06:27:44;13.70;99.90
41557;DHT22;27720;51.992;5.890;2022-10-16T06:30:10;13.70;99.90
41557;DHT22;27720;51.992;5.890;2022-10-16T06:32:35;13.70;99.90
41557;DHT22;27720;51.992;5.890;2022-10-16T06:35:01;13.70;99.90
41557;DHT22;27720;51.992;5.890;2022-10-16T06:37:27;13.80;99.90
41557;DHT22;27720;51.992;5.890;2022-10-16T06:39:53;13.70;99.90
41557;DHT22;27720;51.992;5.890;2022-10-16T06:42:19;13.80;99.90
41557;DHT22;27720;51.992;5.890;2022-10-16T06:44:44;13.80;99.90
41557;DHT22;27720;51.992;5.890;2022-10-16T06:47:10;13.80;99.90
41557;DHT22;27720;51.992;5.890;2022-10-16T06:49:39;13.80;99.90
41557;DHT22;27720;51.992;5.890;2022-10-16T06:52:05;13.80;99.90
41557;DHT22;27720;51.992;5.890;2022-10-16T06:54:39;13.90;99.90
41557;DHT22;27720;51.992;5.890;2022-10-16T06:57:10;13.90;99.90
41557;DHT22;27720;51.992;5.890;2022-10-16T06:59:36;14.00;99.90
41557;DHT22;27720;51.992;5.890;2022-10-16T07:02:02;14.00;99.90
41557;DHT22;27720;51.992;5.890;2022-10-16T07:04:28;14.00;99.90
41557;DHT22;27720;51.992;5.890;2022-10-16T07:06:56;14.00;99.90
41557;DHT22;27720;51.992;5.890;2022-10-16T07:09:22;14.10;99.90
41557;DHT22;27720;51.992;5.890;2022-10-16T07:11:48;14.10;99.90
41557;DHT22;27720;51.992;5.890;2022-10-16T07:14:19;14.10;99.90
41557;DHT22;27720;51.992;5.890;2022-10-16T07:16:46;14.10;99.90
41557;DHT22;27720;51.992;5.890;2022-10-16T07:19:12;14.10;99.90
41557;DHT22;27720;51.992;5.890;2022-10-16T07:21:42;14.20;99.90
41557;DHT22;27720;51.992;5.890;2022-10-16T07:24:14;14.20;99.90
41557;DHT22;27720;51.992;5.890;2022-10-16T07:26:41;14.30;99.90
41557;DHT22;27720;51.992;5.890;2022-10-16T07:29:17;14.30;99.90
41557;DHT22;27720;51.992;5.890;2022-10-16T07:31:44;14.30;99.90
41557;DHT22;27720;51.992;5.890;2022-10-16T07:34:11;14.30;99.90
41557;DHT22;27720;51.992;5.890;2022-10-16T07:36:37;14.40;99.90
41557;DHT22;27720;51.992;5.890;2022-10-16T07:39:03;14.40;99.90
41557;DHT22;27720;51.992;5.890;2022-10-16T07:41:29;14.50;99.90
41557;DHT22;27720;51.992;5.890;2022-10-16T07:43:55;14.50;99.90
41557;DHT22;27720;51.992;5.890;2022-10-16T07:46:25;14.60;99.90
41557;DHT22;27720;51.992;5.890;2022-10-16T07:48:51;14.60;99.90
41557;DHT22;27720;51.992;5.890;2022-10-16T07:51:19;14.70;99.90
41557;DHT22;27720;51.992;5.890;2022-10-16T07:53:48;14.70;99.90
41557;DHT22;27720;51.992;5.890;2022-10-16T07:56:14;14.70;99.90
41557;DHT22;27720;51.992;5.890;2022-10-16T07:58:40;14.70;99.90
41557;DHT22;27720;51.992;5.890;2022-10-16T08:01:08;14.80;99.90
41557;DHT22;27720;51.992;5.890;2022-10-16T08:03:34;14.80;99.90
41557;DHT22;27720;51.992;5.890;2022-10-16T08:06:01;14.90;99.90
41557;DHT22;27720;51.992;5.890;2022-10-16T08:08:27;15.00;99.90
41557;DHT22;27720;51.992;5.890;2022-10-16T08:10:54;15.10;99.90
41557;DHT22;27720;51.992;5.890;2022-10-16T08:13:20;15.10;99.90
41557;DHT22;27720;51.992;5.890;2022-10-16T08:15:53;15.20;99.90
41557;DHT22;27720;51.992;5.890;2022-10-16T08:18:19;15.30;99.90
41557;DHT22;27720;51.992;5.890;2022-10-16T08:20:44;15.30;99.90
41557;DHT22;27720;51.992;5.890;2022-10-16T08:23:13;15.30;99.90
41557;DHT22;27720;51.992;5.890;2022-10-16T08:25:40;15.50;99.90
41557;DHT22;27720;51.992;5.890;2022-10-16T08:28:08;15.60;99.90
41557;DHT22;27720;51.992;5.890;2022-10-16T08:30:34;15.60;99.90
41557;DHT22;27720;51.992;5.890;2022-10-16T08:33:01;15.60;99.90
41557;DHT22;27720;51.992;5.890;2022-10-16T08:35:27;15.60;99.90
41557;DHT22;27720;51.992;5.890;2022-10-16T08:37:53;15.70;99.90
41557;DHT22;27720;51.992;5.890;2022-10-16T08:48:17;15.70;99.90
41557;DHT22;27720;51.992;5.890;2022-10-16T08:50:49;15.70;99.90
41557;DHT22;27720;51.992;5.890;2022-10-16T08:53:38;15.80;99.90
41557;DHT22;27720;51.992;5.890;2022-10-16T08:56:09;15.90;99.90
41557;DHT22;27720;51.992;5.890;2022-10-16T08:58:35;15.90;99.90
41557;DHT22;27720;51.992;5.890;2022-10-16T09:01:03;16.00;99.90
41557;DHT22;27720;51.992;5.890;2022-10-16T09:06:48;16.00;99.90
41557;DHT22;27720;51.992;5.890;2022-10-16T09:12:14;16.10;99.90
41557;DHT22;27720;51.992;5.890;2022-10-16T09:23:27;16.20;99.90
41557;DHT22;27720;51.992;5.890;2022-10-16T09:25:55;16.20;99.90
41557;DHT22;27720;51.992;5.890;2022-10-16T09:28:21;16.20;99.90
41557;DHT22;27720;51.992;5.890;2022-10-16T09:30:47;16.20;99.90
41557;DHT22;27720;51.992;5.890;2022-10-16T09:33:21;16.20;99.90
41557;DHT22;27720;51.992;5.890;2022-10-16T09:35:53;16.30;99.90
41557;DHT22;27720;51.992;5.890;2022-10-16T09:40:53;16.50;99.90
41557;DHT22;27720;51.992;5.890;2022-10-16T09:43:38;16.50;99.90
41557;DHT22;27720;51.992;5.890;2022-10-16T09:46:07;16.60;99.90
41557;DHT22;27720;51.992;5.890;2022-10-16T09:48:43;16.60;99.90
41557;DHT22;27720;51.992;5.890;2022-10-16T09:51:23;16.70;99.90
41557;DHT22;27720;51.992;5.890;2022-10-16T09:54:20;16.70;99.90
41557;DHT22;27720;51.992;5.890;2022-10-16T09:56:46;16.80;99.90
41557;DHT22;27720;51.992;5.890;2022-10-16T09:59:19;16.80;99.90
41557;DHT22;27720;51.992;5.890;2022-10-16T10:01:51;16.90;99.90
41557;DHT22;27720;51.992;5.890;2022-10-16T10:04:19;16.90;99.90
41557;DHT22;27720;51.992;5.890;2022-10-16T10:06:48;16.90;99.90
41557;DHT22;27720;51.992;5.890;2022-10-16T10:09:21;17.00;99.90
41557;DHT22;27720;51.992;5.890;2022-10-16T10:11:51;17.00;99.90
41557;DHT22;27720;51.992;5.890;2022-10-16T10:16:46;17.20;99.90
41557;DHT22;27720;51.992;5.890;2022-10-16T10:19:17;17.30;99.90
41557;DHT22;27720;51.992;5.890;2022-10-16T10:21:44;17.30;99.90
41557;DHT22;27720;51.992;5.890;2022-10-16T10:24:14;17.40;99.90
41557;DHT22;27720;51.992;5.890;2022-10-16T10:27:04;17.50;99.90
41557;DHT22;27720;51.992;5.890;2022-10-16T10:37:47;17.70;99.90
41557;DHT22;27720;51.992;5.890;2022-10-16T10:43:18;17.90;99.90
41557;DHT22;27720;51.992;5.890;2022-10-16T10:45:52;18.00;99.90
41557;DHT22;27720;51.992;5.890;2022-10-16T10:51:30;18.20;99.90
41557;DHT22;27720;51.992;5.890;2022-10-16T11:05:58;18.40;99.90
41557;DHT22;27720;51.992;5.890;2022-10-16T11:08:26;18.50;99.90
41557;DHT22;27720;51.992;5.890;2022-10-16T11:14:17;18.40;99.90
41557;DHT22;27720;51.992;5.890;2022-10-16T11:16:58;18.40;99.90
41557;DHT22;27720;51.992;5.890;2022-10-16T11:22:34;18.40;99.90
41557;DHT22;27720;51.992;5.890;2022-10-16T11:25:15;18.40;99.90
41557;DHT22;27720;51.992;5.890;2022-10-16T11:27:57;18.30;99.90
41557;DHT22;27720;51.992;5.890;2022-10-16T11:30:29;18.20;99.90
41557;DHT22;27720;51.992;5.890;2022-10-16T11:33:23;18.30;99.90
41557;DHT22;27720;51.992;5.890;2022-10-16T11:36:14;18.40;99.90
41557;DHT22;27720;51.992;5.890;2022-10-16T11:47:45;18.50;99.90
41557;DHT22;27720;51.992;5.890;2022-10-16T11:50:26;18.50;99.90
41557;DHT22;27720;51.992;5.890;2022-10-16T11:55:37;18.50;99.90
41557;DHT22;27720;51.992;5.890;2022-10-16T11:58:15;18.50;99.90
41557;DHT22;27720;51.992;5.890;2022-10-16T12:00:52;18.50;99.90
41557;DHT22;27720;51.992;5.890;2022-10-16T12:03:31;18.50;99.90
